Time;durP1;ratioP1;P1;durP2;ratioP2;P2;SDS_P1;SDS_P2;PMS_P1;PMS_P2;Temp;Humidity;BMP_temperature;BMP_pressure;BME280_temperature;BME280_humidity;BME280_pressure;Samples;Min_cycle;Max_cycle;Signal;HPM_P1;HPM_P2
2022/06/04 00:44:17;;;;;;;4.60;4.33;;;;;;;;;;4971942;28;20449;-93
2022/06/04 00:57:27;;;;;;;4.50;4.23;;;;;;;;;;5440699;23;20543;-89
2022/06/04 00:59:55;;;;;;;4.67;4.57;;;;;;;;;;4964459;28;20453;-90
2022/06/04 01:02:35;;;;;;;4.27;4.03;;;16.90;99.90;;;;;;4964244;28;20437;-88
2022/06/04 01:05:16;;;;;;;3.90;3.83;;;;;;;;;;4951031;29;20441;-90
2022/06/04 01:07:57;;;;;;;4.33;4.20;;;;;;;;;;4969683;28;20452;-89
2022/06/04 01:10:58;;;;;;;4.77;4.57;;;16.80;99.90;;;;;;4949699;29;20515;-90
2022/06/04 01:13:24;;;;;;;4.30;4.13;;;;;;;;;;4948232;29;20499;-90
2022/06/04 01:15:57;;;;;;;4.60;4.30;;;;;;;;;;4998193;28;20432;-90
2022/06/04 01:18:26;;;;;;;4.67;4.43;;;;;;;;;;5001781;28;20483;-90
2022/06/04 01:21:00;;;;;;;4.40;4.20;;;16.60;99.90;;;;;;4973147;28;20449;-90
2022/06/04 01:23:30;;;;;;;4.13;3.90;;;;;;;;;;4974287;28;20452;-90
2022/06/04 01:26:03;;;;;;;5.27;4.80;;;;;;;;;;4956235;29;20489;-90
2022/06/04 01:28:31;;;;;;;4.90;4.70;;;;;;;;;;4953792;29;20458;-89
2022/06/04 01:31:03;;;;;;;4.80;4.50;;;16.50;99.90;;;;;;4957130;28;20489;-89
2022/06/04 01:33:31;;;;;;;5.20;4.90;;;;;;;;;;4967419;29;20426;-89
2022/06/04 01:36:33;;;;;;;4.67;4.57;;;16.50;99.90;;;;;;4964535;29;20439;-90
2022/06/04 01:39:05;;;;;;;4.27;4.07;;;16.40;99.90;;;;;;4935852;29;20422;-88
2022/06/04 01:41:53;;;;;;;5.47;4.97;;;;;;;;;;4937347;29;20485;-91
2022/06/04 01:44:36;;;;;;;4.87;4.60;;;16.60;99.90;;;;;;4968037;29;20414;-91
2022/06/04 01:47:10;;;;;;;4.60;4.50;;;;;;;;;;4948590;28;20495;-90
2022/06/04 01:49:36;;;;;;;5.13;4.93;;;;;;;;;;4938982;29;20465;-90
2022/06/04 01:52:33;;;;;;;5.60;5.40;;;16.20;99.90;;;;;;4955779;29;20449;-88
2022/06/04 01:55:14;;;;;;;5.40;5.20;;;16.20;99.90;;;;;;4897805;29;20461;-90
2022/06/04 01:58:03;;;;;;;5.60;5.40;;;16.20;99.90;;;;;;4962389;29;20467;-90
2022/06/04 02:01:00;;;;;;;4.97;4.77;;;16.10;99.90;;;;;;4954392;28;20449;-89
2022/06/04 02:03:38;;;;;;;6.80;5.40;;;16.10;99.90;;;;;;4946504;28;20454;-90
2022/06/04 02:06:07;;;;;;;4.90;4.70;;;;;;;;;;4949370;28;20462;-89
2022/06/04 02:08:45;;;;;;;5.10;4.90;;;16.10;99.90;;;;;;4965437;28;20520;-88
2022/06/04 02:11:15;;;;;;;5.37;5.27;;;15.30;99.90;;;;;;4937371;29;20711;-90
2022/06/04 02:13:47;;;;;;;5.33;5.13;;;16.10;99.90;;;;;;4914942;29;20419;-89
2022/06/04 02:16:13;;;;;;;5.20;4.77;;;;;;;;;;4923588;29;20496;-89
2022/06/04 02:18:41;;;;;;;5.70;5.30;;;;;;;;;;4944270;29;20822;-90
2022/06/04 02:21:08;;;;;;;6.40;6.00;;;;;;;;;;4958075;28;20461;-92
2022/06/04 02:23:46;;;;;;;5.50;5.20;;;;;;;;;;4957049;29;20443;-91
2022/06/04 02:26:12;;;;;;;5.80;5.60;;;;;;;;;;4944119;29;20513;-90
2022/06/04 02:28:54;;;;;;;5.50;5.07;;;;;;;;;;4945397;29;20943;-89
2022/06/04 02:31:48;;;;;;;6.40;6.10;;;16.00;99.90;;;;;;4943424;29;20424;-90
2022/06/04 02:34:41;;;;;;;5.10;4.80;;;16.10;99.90;;;;;;4930198;29;20435;-91
2022/06/04 02:37:20;;;;;;;;;;;;;;;;;;;;;
2022/06/04 02:39:55;;;;;;;6.23;5.87;;;;;;;;;;4946296;29;20551;-91
2022/06/04 02:42:48;;;;;;;5.80;5.40;;;16.00;99.90;;;;;;4944569;29;20439;-90
2022/06/04 02:45:20;;;;;;;5.50;5.20;;;;;;;;;;4930248;29;20492;-91
2022/06/04 02:48:24;;;;;;;6.50;6.07;;;16.10;99.90;;;;;;4922140;29;20483;-89
2022/06/04 02:51:19;;;;;;;5.27;5.13;;;16.00;99.90;;;;;;4960214;28;20522;-91
2022/06/04 02:53:51;;;;;;;6.07;5.87;;;16.10;99.90;;;;;;4941543;29;20431;-90
2022/06/04 02:56:25;;;;;;;5.93;5.10;;;16.00;99.90;;;;;;4964385;28;20675;-90
2022/06/04 02:59:06;;;;;;;5.67;5.37;;;16.00;99.90;;;;;;4964412;29;20481;-91
2022/06/04 03:01:38;;;;;;;5.30;5.10;;;16.00;99.90;;;;;;4911176;29;20439;-91
2022/06/04 03:04:08;;;;;;;6.90;6.30;;;;;;;;;;4924018;29;20492;-91
2022/06/04 03:06:34;;;;;;;6.27;5.87;;;;;;;;;;4962985;29;20525;-91
2022/06/04 03:09:19;;;;;;;5.90;5.60;;;16.00;99.90;;;;;;4945925;29;20442;-90
2022/06/04 03:12:00;;;;;;;5.80;5.50;;;;;;;;;;4912348;29;20959;-90
2022/06/04 03:14:27;;;;;;;5.83;5.40;;;;;;;;;;4946143;29;20461;-90
2022/06/04 03:16:56;;;;;;;6.70;6.00;;;;;;;;;;4939287;29;20427;-91
2022/06/04 03:19:30;;;;;;;6.03;5.73;;;;;;;;;;4947019;29;20446;-91
2022/06/04 03:21:56;;;;;;;6.17;5.70;;;;;;;;;;4942835;29;20522;-90
2022/06/04 03:24:25;;;;;;;6.20;5.73;;;;;;;;;;4949931;29;20783;-89
2022/06/04 03:26:53;;;;;;;7.27;5.23;;;;;;;;;;4943999;29;20483;-90
2022/06/04 03:29:20;;;;;;;6.13;5.73;;;;;;;;;;4945914;29;20430;-90
2022/06/04 03:32:01;;;;;;;5.97;5.77;;;;;;;;;;4950771;29;20447;-89
2022/06/04 03:34:34;;;;;;;5.77;5.47;;;;;;;;;;4938550;29;20419;-90
2022/06/04 03:37:01;;;;;;;5.57;5.37;;;;;;;;;;4920713;29;20451;-91
2022/06/04 03:39:29;;;;;;;6.13;5.83;;;;;;;;;;4938714;29;20927;-90
2022/06/04 03:41:59;;;;;;;6.10;5.70;;;;;;;;;;4927338;29;20443;-92
2022/06/04 03:44:27;;;;;;;7.03;6.63;;;;;;;;;;4942395;29;20599;-90
2022/06/04 03:46:53;;;;;;;6.47;6.07;;;;;;;;;;4942469;29;20470;-91
2022/06/04 03:49:23;;;;;;;6.37;5.80;;;;;;;;;;4922159;29;20694;-91
2022/06/04 03:51:54;;;;;;;5.87;5.67;;;;;;;;;;4950183;29;20443;-92
2022/06/04 03:54:52;;;;;;;6.33;5.83;;;;;;;;;;4918084;29;21038;-91
2022/06/04 04:00:09;;;;;;;6.73;6.10;;;;;;;;;;4939382;29;20417;-93
2022/06/04 04:02:46;;;;;;;5.60;5.40;;;;;;;;;;4919881;29;20428;-93
2022/06/04 04:05:14;;;;;;;9.17;6.73;;;;;;;;;;4921905;29;20490;-91
2022/06/04 04:07:43;;;;;;;6.53;6.23;;;;;;;;;;4950575;29;20502;-91
2022/06/04 04:10:12;;;;;;;6.10;5.80;;;;;;;;;;4941801;29;20469;-91
2022/06/04 04:12:40;;;;;;;6.13;5.67;;;;;;;;;;4944109;29;20439;-91
2022/06/04 04:15:07;;;;;;;7.27;6.77;;;;;;;;;;4945338;29;20450;-91
2022/06/04 04:17:36;;;;;;;5.77;5.57;;;;;;;;;;4948327;29;20495;-91
2022/06/04 04:20:03;;;;;;;6.40;6.10;;;;;;;;;;4957278;28;20457;-93
2022/06/04 04:22:38;;;;;;;5.60;5.33;;;;;;;;;;4939164;29;20438;-91
2022/06/04 04:25:05;;;;;;;6.33;5.80;;;;;;;;;;4910794;29;20472;-90
2022/06/04 04:27:32;;;;;;;5.90;5.70;;;;;;;;;;4944960;29;20587;-92
2022/06/04 04:30:05;;;;;;;6.10;5.83;;;;;;;;;;4918132;29;20454;-92
2022/06/04 04:32:32;;;;;;;6.43;6.13;;;;;;;;;;4907552;29;20431;-93
2022/06/04 04:34:58;;;;;;;7.00;6.30;;;;;;;;;;4922254;29;20427;-90
2022/06/04 04:37:27;;;;;;;6.10;5.90;;;;;;;;;;4939677;29;20945;-91
2022/06/04 04:39:55;;;;;;;6.40;5.80;;;;;;;;;;4937265;29;20466;-92
2022/06/04 04:42:28;;;;;;;6.40;6.10;;;;;;;;;;4942299;29;20428;-91
2022/06/04 04:44:54;;;;;;;6.73;6.33;;;;;;;;;;4937116;29;20455;-90
2022/06/04 04:47:20;;;;;;;6.53;5.93;;;;;;;;;;4954325;29;20469;-89
2022/06/04 04:49:48;;;;;;;7.33;7.00;;;;;;;;;;4939757;29;20855;-92
2022/06/04 04:52:18;;;;;;;6.30;6.10;;;;;;;;;;4952667;29;20500;-92
2022/06/04 04:54:47;;;;;;;5.53;5.30;;;;;;;;;;4938727;29;21238;-92
2022/06/04 04:57:18;;;;;;;5.80;5.60;;;;;;;;;;4932761;29;20999;-91
2022/06/04 05:00:04;;;;;;;7.30;6.50;;;;;;;;;;4933214;29;20431;-92
2022/06/04 05:02:36;;;;;;;6.17;5.67;;;;;;;;;;4251111;29;10000674;-93
2022/06/04 05:05:02;;;;;;;7.13;6.60;;;;;;;;;;4933669;29;20442;-90
2022/06/04 05:07:28;;;;;;;6.00;5.70;;;;;;;;;;4942317;29;20505;-93
2022/06/04 05:09:56;;;;;;;6.93;6.57;;;;;;;;;;4922415;29;20490;-93
2022/06/04 05:12:23;;;;;;;6.50;6.10;;;;;;;;;;4926847;29;20435;-94
2022/06/04 05:14:52;;;;;;;6.80;6.30;;;;;;;;;;4918369;29;20450;-92
2022/06/04 05:17:21;;;;;;;6.57;6.00;;;;;;;;;;4937719;29;20443;-92
2022/06/04 05:19:53;;;;;;;6.30;5.80;;;;;;;;;;4918080;29;20830;-93
2022/06/04 05:22:19;;;;;;;7.67;6.90;;;;;;;;;;4924943;29;20459;-92
2022/06/04 05:24:45;;;;;;;6.80;6.40;;;;;;;;;;4919718;29;20497;-93
2022/06/04 05:27:11;;;;;;;7.07;6.73;;;;;;;;;;4915971;29;20479;-92
2022/06/04 05:29:37;;;;;;;6.10;5.83;;;;;;;;;;4943351;29;21235;-92
2022/06/04 05:32:04;;;;;;;6.83;6.43;;;;;;;;;;4928430;29;20523;-90
2022/06/04 05:34:31;;;;;;;6.80;6.50;;;;;;;;;;4954163;29;20442;-92
2022/06/04 05:36:58;;;;;;;7.73;7.23;;;;;;;;;;4939555;29;20532;-91
2022/06/04 05:39:26;;;;;;;7.23;6.70;;;;;;;;;;4948292;29;20835;-92
2022/06/04 05:41:53;;;;;;;6.70;6.40;;;;;;;;;;4945165;29;20425;-93
2022/06/04 05:44:22;;;;;;;7.77;7.10;;;;;;;;;;4931324;29;20447;-91
2022/06/04 05:46:48;;;;;;;7.40;7.00;;;;;;;;;;4949807;29;20476;-91
2022/06/04 05:49:17;;;;;;;7.37;6.90;;;;;;;;;;4924121;29;20449;-92
2022/06/04 05:51:56;;;;;;;6.73;6.33;;;;;;;;;;4956606;29;20449;-92
2022/06/04 05:54:22;;;;;;;7.60;7.00;;;;;;;;;;4937336;29;20454;-94
2022/06/04 05:56:49;;;;;;;6.93;6.53;;;;;;;;;;4948769;29;20485;-92
2022/06/04 05:59:17;;;;;;;7.10;6.70;;;;;;;;;;4934966;29;20441;-91
2022/06/04 06:01:44;;;;;;;6.77;6.43;;;;;;;;;;4948069;29;20538;-90
2022/06/04 06:04:14;;;;;;;7.27;6.20;;;;;;;;;;4939995;29;20431;-92
2022/06/04 06:06:46;;;;;;;7.70;7.30;;;;;;;;;;4950932;29;20473;-89
2022/06/04 06:09:13;;;;;;;6.80;6.40;;;;;;;;;;4929253;29;20438;-91
2022/06/04 06:11:43;;;;;;;6.50;6.20;;;;;;;;;;4942843;29;20422;-91
2022/06/04 06:14:09;;;;;;;7.60;7.10;;;;;;;;;;4937545;29;20454;-91
2022/06/04 06:16:36;;;;;;;8.43;7.43;;;;;;;;;;4948760;29;20438;-90
2022/06/04 06:19:02;;;;;;;6.87;6.47;;;;;;;;;;4965408;29;20436;-90
2022/06/04 06:21:32;;;;;;;6.80;6.60;;;;;;;;;;4959298;28;20483;-93
2022/06/04 06:24:01;;;;;;;7.83;7.33;;;;;;;;;;4949425;29;20462;-93
2022/06/04 06:26:31;;;;;;;8.03;7.33;;;;;;;;;;4964684;29;20490;-91
2022/06/04 06:28:59;;;;;;;6.77;6.47;;;;;;;;;;4950176;29;20435;-91
2022/06/04 06:31:29;;;;;;;6.87;6.33;;;;;;;;;;4965379;29;20421;-92
2022/06/04 06:33:56;;;;;;;11.40;7.05;;;;;;;;;;4611097;29;10000436;-91
2022/06/04 06:36:24;;;;;;;7.20;6.63;;;;;;;;;;4932159;29;20294;-91
2022/06/04 06:38:50;;;;;;;7.10;6.40;;;;;;;;;;4953826;28;20470;-92
2022/06/04 06:41:18;;;;;;;6.80;6.30;;;;;;;;;;4940074;29;20466;-92
2022/06/04 06:43:50;;;;;;;6.63;6.33;;;;;;;;;;4941010;29;20439;-94
2022/06/04 06:46:18;;;;;;;8.27;6.47;;;;;;;;;;4941498;29;20474;-91
2022/06/04 06:48:45;;;;;;;7.47;6.97;;;;;;;;;;4964232;28;20477;-91
2022/06/04 06:51:25;;;;;;;6.90;6.50;;;;;;;;;;4950399;29;20439;-94
2022/06/04 06:53:54;;;;;;;7.83;7.07;;;;;;;;;;4944095;29;20463;-92
2022/06/04 06:56:23;;;;;;;7.87;7.23;;;;;;;;;;4957809;29;20483;-92
2022/06/04 06:58:52;;;;;;;6.73;6.33;;;;;;;;;;4611288;29;10000039;-91
2022/06/04 07:01:18;;;;;;;7.27;6.87;;;;;;;;;;4964110;29;20249;-94
2022/06/04 07:03:44;;;;;;;6.27;5.97;;;;;;;;;;4951377;29;20434;-94
2022/06/04 07:06:20;;;;;;;7.63;7.00;;;;;;;;;;4955986;29;20850;-91
2022/06/04 07:08:46;;;;;;;7.13;6.53;;;;;;;;;;4921785;29;20453;-91
2022/06/04 07:11:14;;;;;;;6.20;6.00;;;;;;;;;;4951790;29;20443;-93
2022/06/04 07:13:41;;;;;;;8.07;7.47;;;;;;;;;;4937039;29;20438;-92
2022/06/04 07:16:15;;;;;;;6.57;6.37;;;21.50;99.90;;;;;;4945373;29;20463;-94
2022/06/04 07:18:43;;;;;;;7.80;7.13;;;;;;;;;;4940223;29;20438;-93
2022/06/04 07:21:15;;;;;;;7.30;6.80;;;;;;;;;;4943863;29;20442;-92
2022/06/04 07:23:43;;;;;;;7.70;7.10;;;;;;;;;;4938805;29;20435;-92
2022/06/04 07:26:09;;;;;;;6.60;6.20;;;;;;;;;;4938115;29;20802;-92
2022/06/04 07:28:38;;;;;;;8.17;7.77;;;;;;;;;;4930897;29;20501;-93
2022/06/04 07:31:06;;;;;;;7.60;7.00;;;21.30;99.90;;;;;;4942808;29;20438;-91
2022/06/04 07:33:34;;;;;;;8.13;7.50;;;21.20;99.90;;;;;;4925952;29;20923;-91
2022/06/04 07:36:04;;;;;;;7.60;7.30;;;20.50;99.90;;;;;;4956012;29;20443;-92
2022/06/04 07:38:34;;;;;;;7.50;7.17;;;;;;;;;;4922369;29;20461;-92
2022/06/04 07:41:01;;;;;;;8.03;7.73;;;;;;;;;;4912855;29;20442;-93
2022/06/04 07:43:33;;;;;;;7.57;7.07;;;20.30;99.90;;;;;;4933862;29;20947;-92
2022/06/04 07:46:00;;;;;;;8.37;7.60;;;;;;;;;;4939643;29;20431;-91
2022/06/04 07:48:26;;;;;;;7.67;7.17;;;20.80;99.90;;;;;;4926641;29;20431;-89
2022/06/04 07:50:52;;;;;;;7.33;7.03;;;;;;;;;;4924031;29;20427;-89
2022/06/04 07:53:19;;;;;;;6.97;6.30;;;;;;;;;;4928878;29;20498;-91
2022/06/04 07:55:58;;;;;;;7.50;6.83;;;;;;;;;;4942539;29;20438;-92
2022/06/04 07:58:33;;;;;;;7.30;7.00;;;20.90;99.90;;;;;;4930060;29;20441;-91
2022/06/04 08:01:06;;;;;;;6.43;6.13;;;21.00;99.90;;;;;;4921324;29;20434;-92
2022/06/04 08:03:42;;;;;;;7.43;7.10;;;;;;;;;;4917987;29;20442;-91
2022/06/04 08:06:10;;;;;;;7.37;7.07;;;;;;;;;;4909325;29;20471;-89
2022/06/04 08:08:36;;;;;;;7.37;6.90;;;;;;;;;;4919938;29;20479;-91
2022/06/04 08:11:43;;;;;;;7.20;6.90;;;;;;;;;;4941236;29;20586;-92
2022/06/04 08:13:54;;;;;;;7.30;7.00;;;;;;;;;;4932025;29;20431;-90
2022/06/04 08:16:23;;;;;;;6.67;6.37;;;;;;;;;;4939188;29;20435;-89
2022/06/04 08:18:49;;;;;;;6.70;6.40;;;;;;;;;;4924899;29;20562;-91
2022/06/04 08:21:18;;;;;;;8.80;8.30;;;21.50;99.90;;;;;;4931417;29;21110;-92
2022/06/04 08:23:44;;;;;;;7.40;6.90;;;;;;;;;;4926986;29;20872;-90
2022/06/04 08:26:13;;;;;;;8.73;8.10;;;;;;;;;;4925560;29;20435;-91
2022/06/04 08:28:39;;;;;;;8.13;7.30;;;;;;;;;;4937427;29;20443;-92
2022/06/04 08:31:07;;;;;;;6.93;6.63;;;;;;;;;;4931241;29;20447;-91
2022/06/04 08:33:33;;;;;;;7.70;7.30;;;;;;;;;;4932405;29;20435;-92
2022/06/04 08:35:59;;;;;;;7.50;7.20;;;21.80;99.90;;;;;;4916963;29;20432;-92
2022/06/04 08:41:38;;;;;;;7.30;6.90;;;;;;;;;;4921112;29;20203;-91
2022/06/04 08:44:19;;;;;;;7.80;7.37;;;;;;;;;;4897441;29;20450;-91
2022/06/04 08:46:53;;;;;;;7.40;7.10;;;;;;;;;;4936747;29;20478;-90
2022/06/04 08:49:29;;;;;;;8.07;7.27;;;;;;;;;;4943377;29;20490;-91
2022/06/04 08:51:55;;;;;;;8.20;7.70;;;;;;;;;;4922283;29;20430;-92
2022/06/04 09:00:20;;;;;;;7.37;6.83;;;22.80;99.90;;;;;;4940195;29;20452;-91
2022/06/04 09:02:59;;;;;;;7.23;6.70;;;23.10;99.90;;;;;;4940624;29;20425;-92
2022/06/04 09:05:35;;;;;;;7.73;7.23;;;;;;;;;;4927737;29;20451;-92
2022/06/04 09:08:11;;;;;;;9.90;9.00;;;;;;;;;;4932006;29;20482;-92
2022/06/04 09:10:41;;;;;;;9.53;8.80;;;;;;;;;;4929799;29;20455;-92
2022/06/04 09:13:15;;;;;;;8.87;8.13;;;;;;;;;;4956934;28;20427;-93
2022/06/04 09:15:45;;;;;;;9.80;9.00;;;;;;;;;;4940257;29;20902;-92
2022/06/04 09:18:15;;;;;;;9.63;9.00;;;;;;;;;;4948102;29;20974;-92
2022/06/04 09:20:46;;;;;;;8.20;7.90;;;;;;;;;;4942238;29;20447;-91
2022/06/04 09:23:24;;;;;;;9.67;8.77;;;;;;;;;;4959920;29;20477;-88
2022/06/04 09:25:59;;;;;;;9.20;8.53;;;;;;;;;;4945376;29;20943;-91
2022/06/04 09:28:39;;;;;;;10.00;9.20;;;;;;;;;;4936049;29;20659;-91
2022/06/04 09:31:11;;;;;;;10.17;9.47;;;;;;;;;;4944494;29;20423;-91
2022/06/04 09:33:44;;;;;;;9.07;8.67;;;;;;;;;;4945881;29;20505;-90
2022/06/04 09:36:11;;;;;;;8.27;7.87;;;;;;;;;;4925892;29;20496;-90
2022/06/04 09:38:37;;;;;;;8.97;8.37;;;;;;;;;;4947675;29;20462;-89
2022/06/04 09:41:05;;;;;;;9.10;8.60;;;;;;;;;;4930151;29;20442;-90
2022/06/04 09:43:36;;;;;;;9.03;8.33;;;;;;;;;;4960069;29;20422;-89
2022/06/04 09:46:10;;;;;;;9.53;8.83;;;;;;;;;;4942171;29;20452;-91
2022/06/04 09:48:38;;;;;;;9.10;8.50;;;;;;;;;;4921774;29;20494;-89
2022/06/04 09:51:09;;;;;;;9.47;8.87;;;;;;;;;;4944227;29;20478;-90
2022/06/04 09:53:46;;;;;;;10.00;8.70;;;;;;;;;;4935819;29;20418;-89
2022/06/04 09:56:14;;;;;;;11.10;9.70;;;;;;;;;;4943768;29;20458;-93
2022/06/04 09:58:43;;;;;;;10.50;9.70;;;;;;;;;;4962954;29;20403;-90
2022/06/04 10:01:09;;;;;;;9.70;9.00;;;;;;;;;;4951847;29;20439;-92
2022/06/04 10:03:45;;;;;;;10.70;9.17;;;;;;;;;;4940635;29;20506;-90
2022/06/04 10:06:13;;;;;;;10.40;9.60;;;;;;;;;;4941661;28;20435;-89
2022/06/04 10:11:37;;;;;;;10.30;9.70;;;;;;;;;;4938519;29;20445;-90
2022/06/04 10:14:07;;;;;;;10.07;9.50;;;;;;;;;;4943925;29;20474;-91
2022/06/04 10:16:34;;;;;;;9.43;9.03;;;;;;;;;;4938302;29;20574;-92
2022/06/04 10:19:01;;;;;;;9.40;8.80;;;;;;;;;;4930121;29;20450;-90
2022/06/04 10:21:28;;;;;;;9.30;8.80;;;;;;;;;;4955131;28;20446;-91
2022/06/04 10:23:57;;;;;;;9.17;8.67;;;;;;;;;;4954719;28;20926;-90
2022/06/04 10:26:31;;;;;;;9.20;8.47;;;;;;;;;;4949450;29;20448;-90
2022/06/04 10:29:18;;;;;;;9.73;8.90;;;;;;;;;;4942714;29;20466;-90
2022/06/04 10:31:45;;;;;;;8.93;8.33;;;;;;;;;;4942562;29;20466;-93
2022/06/04 10:34:31;;;;;;;8.40;8.00;;;;;;;;;;4958074;29;20426;-95
2022/06/04 10:37:19;;;;;;;9.03;8.53;;;;;;;;;;4927282;29;20426;-94
2022/06/04 10:39:56;;;;;;;9.50;9.10;;;;;;;;;;4906171;29;20421;-94
2022/06/04 10:42:42;;;;;;;8.37;8.00;;;28.20;93.00;;;;;;4922355;29;20531;-91
2022/06/04 10:45:27;;;;;;;9.10;8.40;;;;;;;;;;4928151;29;20432;-92
2022/06/04 10:48:02;;;;;;;9.50;9.00;;;;;;;;;;4925175;29;20505;-90
2022/06/04 10:53:50;;;;;;;8.63;8.27;;;26.70;92.80;;;;;;4944322;29;20523;-90
2022/06/04 10:56:21;;;;;;;8.43;8.13;;;26.90;90.50;;;;;;4945875;29;21140;-90
2022/06/04 10:59:02;;;;;;;9.87;9.10;;;27.60;92.90;;;;;;4955386;29;20629;-89
2022/06/04 11:01:46;;;;;;;10.57;8.47;;;28.80;92.00;;;;;;4942830;28;20474;-91
2022/06/04 11:04:46;;;;;;;8.97;8.30;;;28.50;90.50;;;;;;4940535;29;20482;-89
2022/06/04 11:07:34;;;;;;;9.60;9.00;;;29.20;85.40;;;;;;4939165;29;20486;-92
2022/06/04 11:10:05;;;;;;;10.13;9.63;;;29.60;84.10;;;;;;4940975;29;20426;-91
2022/06/04 11:12:56;;;;;;;9.97;9.27;;;29.80;84.10;;;;;;4923494;29;20492;-90
2022/06/04 11:15:40;;;;;;;9.60;8.90;;;29.50;81.40;;;;;;4920999;29;20439;-92
2022/06/04 11:18:18;;;;;;;9.10;8.47;;;29.20;83.60;;;;;;4911247;29;20423;-92
2022/06/04 11:20:58;;;;;;;8.90;8.40;;;29.30;83.70;;;;;;4939832;29;20518;-92
2022/06/04 11:24:12;;;;;;;10.53;8.37;;;30.10;85.80;;;;;;4929318;29;20509;-91
2022/06/04 11:26:43;;;;;;;9.60;9.10;;;;;;;;;;4877114;29;20450;-92
2022/06/04 11:29:21;;;;;;;9.90;9.30;;;31.00;81.20;;;;;;4890758;29;20521;-92
2022/06/04 11:32:29;;;;;;;11.30;10.73;;;31.00;77.20;;;;;;4945947;29;20562;-96
2022/06/04 11:35:29;;;;;;;9.80;9.23;;;31.30;76.90;;;;;;4897848;29;20446;-90
2022/06/04 11:38:17;;;;;;;9.17;8.60;;;;;;;;;;4916730;29;20541;-90
2022/06/04 11:40:59;;;;;;;8.97;8.17;;;;;;;;;;4928472;29;20419;-90
2022/06/04 11:43:44;;;;;;;10.43;9.60;;;;;;;;;;4969888;28;20978;-91
2022/06/04 11:46:41;;;;;;;8.30;8.00;;;;;;;;;;4951308;29;20437;-92
2022/06/04 11:49:26;;;;;;;8.60;8.00;;;;;;;;;;4952890;29;20455;-91
2022/06/04 11:52:13;;;;;;;9.30;9.00;;;;;;;;;;4938531;29;20506;-93
2022/06/04 11:55:02;;;;;;;8.97;8.17;;;;;;;;;;4917500;29;20459;-90
2022/06/04 11:57:40;;;;;;;8.97;8.50;;;;;;;;;;4967775;28;20549;-89
2022/06/04 12:00:12;;;;;;;8.80;8.27;;;;;;;;;;4966774;29;20454;-91
2022/06/04 12:03:07;;;;;;;10.47;9.97;;;;;;;;;;4976139;28;20430;-91
2022/06/04 12:05:43;;;;;;;9.80;9.20;;;;;;;;;;4944933;29;20466;-91
2022/06/04 12:08:17;;;;;;;8.67;8.17;;;;;;;;;;4971915;29;20524;-94
2022/06/04 12:10:59;;;;;;;8.00;7.70;;;;;;;;;;4969356;28;20446;-93
2022/06/04 12:13:47;;;;;;;8.47;8.00;;;;;;;;;;4952093;29;20479;-91
2022/06/04 12:16:29;;;;;;;10.30;9.50;;;;;;;;;;4934270;29;20424;-89
2022/06/04 12:25:06;;;;;;;8.20;7.80;;;;;;;;;;4938008;29;20615;-91
2022/06/04 12:27:38;;;;;;;8.63;7.93;;;;;;;;;;4936749;29;20491;-91
2022/06/04 12:30:28;;;;;;;9.27;8.47;;;;;;;;;;5147438;23;20441;-90
2022/06/04 12:35:33;;;;;;;8.70;8.20;;;;;;;;;;4951731;28;20309;-90
2022/06/04 12:38:00;;;;;;;8.20;7.80;;;;;;;;;;4941265;29;20444;-91
2022/06/04 12:40:26;;;;;;;8.67;8.17;;;;;;;;;;4949271;29;20458;-91
2022/06/04 14:55:44;;;;;;;4.07;4.07;;;30.20;47.80;;;;;;4946425;29;20487;-94
2022/06/04 14:58:26;;;;;;;3.97;3.97;;;28.30;72.90;;;;;;4910253;29;20488;-93
2022/06/04 15:01:14;;;;;;;4.97;4.77;;;28.30;51.10;;;;;;4950539;29;20399;-94
2022/06/04 15:04:27;;;;;;;4.60;4.50;;;27.50;54.70;;;;;;4572705;29;10000440;-90
2022/06/04 15:07:22;;;;;;;4.50;4.50;;;27.30;51.80;;;;;;4910456;29;20266;-92
2022/06/04 15:10:16;;;;;;;5.27;4.77;;;27.20;53.20;;;;;;4900783;29;20495;-91
2022/06/04 15:13:15;;;;;;;4.57;4.30;;;26.90;53.20;;;;;;4905085;29;20447;-92
2022/06/04 15:16:13;;;;;;;4.07;4.00;;;27.90;55.10;;;;;;4934034;29;20431;-87
2022/06/04 15:19:15;;;;;;;4.73;4.43;;;27.00;54.00;;;;;;4920073;29;20447;-91
2022/06/04 15:22:17;;;;;;;5.60;5.40;;;27.00;52.40;;;;;;4898229;29;20480;-92
2022/06/04 15:24:55;;;;;;;9.33;5.67;;;27.00;54.60;;;;;;4909465;29;20444;-82
2022/06/04 15:27:42;;;;;;;4.97;4.30;;;27.70;55.40;;;;;;4910272;29;20471;-95
2022/06/04 15:36:19;;;;;;;4.67;4.67;;;27.20;57.00;;;;;;4967685;29;20502;-93
2022/06/04 15:38:52;;;;;;;5.40;5.00;;;27.00;57.00;;;;;;4952782;28;20438;-89
2022/06/04 15:41:29;;;;;;;4.50;4.43;;;27.10;57.20;;;;;;4953008;29;20423;-94
2022/06/04 15:44:09;;;;;;;4.70;4.60;;;27.10;54.90;;;;;;4960426;28;20452;-92
2022/06/04 15:46:42;;;;;;;4.23;4.13;;;27.00;57.00;;;;;;4943450;29;20431;-96
2022/06/04 15:57:48;;;;;;;5.37;5.20;;;27.30;55.40;;;;;;4951321;29;20410;-92
2022/06/04 16:00:23;;;;;;;5.67;5.47;;;26.80;57.40;;;;;;4976542;28;20448;-95
2022/06/04 16:02:50;;;;;;;5.30;5.20;;;;;;;;;;4955730;28;20454;-92
2022/06/04 16:05:36;;;;;;;5.73;5.53;;;26.80;58.10;;;;;;5194936;23;20480;-94
2022/06/04 16:08:16;;;;;;;4.53;4.43;;;26.80;57.80;;;;;;4968129;29;20469;-91
2022/06/04 16:10:48;;;;;;;4.70;4.50;;;26.70;55.60;;;;;;4955991;28;20438;-91
2022/06/04 16:13:33;;;;;;;5.40;5.17;;;26.50;58.30;;;;;;4960325;29;20462;-90
2022/06/04 16:16:14;;;;;;;5.55;5.25;;;;;;;;;;4929093;29;20445;-87
2022/06/04 16:18:54;;;;;;;5.10;4.90;;;26.60;80.30;;;;;;4933421;29;20429;-89
2022/06/04 16:21:35;;;;;;;4.87;4.77;;;26.60;57.20;;;;;;4927446;29;20275;-91
2022/06/04 16:24:27;;;;;;;6.00;5.10;;;26.00;54.70;;;;;;4948840;28;20564;-91
2022/06/04 16:26:57;;;;;;;5.40;5.13;;;26.40;59.60;;;;;;4934510;29;20778;-91
2022/06/04 16:29:35;;;;;;;6.00;5.70;;;26.50;58.00;;;;;;4949650;29;20458;-89
2022/06/04 16:32:15;;;;;;;5.13;4.93;;;26.80;58.20;;;;;;4934370;29;20962;-91
2022/06/04 16:35:07;;;;;;;4.83;4.83;;;26.00;83.50;;;;;;4942379;29;20438;-95
2022/06/04 16:37:34;;;;;;;5.37;5.20;;;;;;;;;;4936117;28;20435;-94
2022/06/04 16:40:01;;;;;;;5.00;4.90;;;26.00;58.20;;;;;;4975081;28;20437;-94
2022/06/04 16:42:46;;;;;;;5.33;5.13;;;26.10;58.50;;;;;;5071195;23;20494;-92
2022/06/04 16:45:27;;;;;;;5.20;5.10;;;26.20;83.40;;;;;;4933981;29;20444;-91
2022/06/04 16:48:05;;;;;;;5.73;5.47;;;26.20;60.70;;;;;;4951975;29;20462;-93
2022/06/04 16:50:36;;;;;;;6.13;5.93;;;26.20;58.80;;;;;;4933246;29;20419;-93
2022/06/04 16:53:07;;;;;;;7.60;7.20;;;26.10;58.60;;;;;;4972326;29;20445;-92
2022/06/04 16:55:34;;;;;;;6.10;5.80;;;26.00;58.60;;;;;;4267291;28;10000516;-93
2022/06/04 16:58:02;;;;;;;4.83;4.73;;;25.90;58.40;;;;;;4950795;29;20187;-90
2022/06/04 17:00:48;;;;;;;4.77;4.60;;;26.00;60.00;;;;;;4959992;29;20435;-89
2022/06/04 17:03:29;;;;;;;5.67;4.90;;;26.00;55.90;;;;;;4937098;29;20498;-92
2022/06/04 17:06:29;;;;;;;5.00;4.90;;;26.00;59.10;;;;;;4973334;29;20446;-93
2022/06/04 17:09:21;;;;;;;5.27;4.97;;;25.80;58.70;;;;;;4963392;29;20576;-93
2022/06/04 17:12:04;;;;;;;5.37;4.83;;;25.60;85.70;;;;;;4935690;29;20448;-92
2022/06/04 17:14:52;;;;;;;5.33;5.03;;;25.80;61.50;;;;;;4950060;29;20406;-90
2022/06/04 17:17:43;;;;;;;6.03;5.83;;;25.80;59.60;;;;;;4945238;28;21230;-86
2022/06/04 17:20:38;;;;;;;5.30;5.20;;;25.80;59.90;;;;;;4936749;29;20436;-93
2022/06/04 17:24:09;;;;;;;4.73;4.67;;;25.80;60.00;;;;;;4930981;28;20423;-89
2022/06/04 17:27:22;;;;;;;5.50;5.20;;;25.60;61.00;;;;;;4901118;28;20558;-89
2022/06/04 17:29:55;;;;;;;5.50;5.00;;;25.60;66.30;;;;;;4936181;29;20447;-94
2022/06/04 17:32:49;;;;;;;5.67;5.40;;;25.20;62.00;;;;;;4938422;28;20482;-92
2022/06/04 17:35:57;;;;;;;4.70;4.60;;;25.60;61.10;;;;;;5028069;23;20601;-91
2022/06/04 17:38:52;;;;;;;4.77;4.60;;;25.70;61.30;;;;;;4970710;23;20502;-94
2022/06/04 17:41:52;;;;;;;5.13;5.03;;;25.60;59.00;;;;;;4942970;29;20468;-93
2022/06/04 17:44:19;;;;;;;4.87;4.77;;;;;;;;;;4935380;29;20423;-90
2022/06/04 17:46:45;;;;;;;5.00;4.80;;;;;;;;;;4972833;28;20488;-95
2022/06/04 17:49:11;;;;;;;4.93;4.63;;;;;;;;;;4952222;29;20557;-93
2022/06/04 17:51:41;;;;;;;5.80;5.30;;;25.40;60.20;;;;;;4951972;29;20510;-94
2022/06/04 17:54:14;;;;;;;5.70;5.40;;;;;;;;;;4957479;29;20450;-94
2022/06/04 17:56:40;;;;;;;5.50;5.30;;;;;;;;;;4960301;23;20489;-94
2022/06/04 17:59:13;;;;;;;5.87;5.67;;;25.40;87.90;;;;;;4973591;28;20434;-91
2022/06/04 18:01:40;;;;;;;4.60;4.40;;;25.40;60.00;;;;;;4972507;28;20506;-94
2022/06/04 18:04:07;;;;;;;5.47;5.27;;;25.40;60.40;;;;;;5004081;23;20498;-92
2022/06/04 18:06:35;;;;;;;4.77;4.67;;;25.30;61.90;;;;;;4954066;29;20426;-89
2022/06/04 18:09:04;;;;;;;5.20;5.10;;;24.70;64.70;;;;;;4951146;29;20478;-92
2022/06/04 18:11:39;;;;;;;5.63;5.53;;;25.00;89.10;;;;;;4952967;29;20517;-92
2022/06/04 18:14:13;;;;;;;5.10;5.00;;;25.00;65.00;;;;;;4956848;28;20481;-93
2022/06/04 18:16:44;;;;;;;5.40;5.30;;;25.00;65.30;;;;;;4929640;29;20941;-91
2022/06/04 18:19:19;;;;;;;4.80;4.70;;;25.10;61.90;;;;;;4927702;29;20466;-94
2022/06/04 18:21:45;;;;;;;5.30;5.20;;;;;;;;;;4948657;29;20464;-92
2022/06/04 18:24:19;;;;;;;5.50;5.30;;;24.90;57.50;;;;;;4949685;29;20467;-94
2022/06/04 18:26:50;;;;;;;4.97;4.80;;;24.80;65.50;;;;;;4940632;29;20975;-93
2022/06/04 18:29:16;;;;;;;5.60;5.50;;;;;;;;;;4951001;29;20486;-91
2022/06/04 18:31:41;;;;;;;5.83;5.43;;;24.80;57.60;;;;;;4939813;29;20438;-91